Time;durP1;ratioP1;P1;durP2;ratioP2;P2;SDS_P1;SDS_P2;PMS_P1;PMS_P2;Temp;Humidity;BMP_temperature;BMP_pressure;BME280_temperature;BME280_humidity;BME280_pressure;Samples;Min_cycle;Max_cycle;Signal;HPM_P1;HPM_P2
2021/12/17 00:04:25;;;;;;;28.80;14.40;;;;;;;4.46;64.28;95724.13;4994869;28;20635;-78
2021/12/17 00:06:50;;;;;;;20.95;13.50;;;;;;;4.48;63.67;95722.19;4994556;28;20105;-78
2021/12/17 00:09:16;;;;;;;21.73;13.65;;;;;;;4.46;64.19;95724.94;4996477;28;20176;-78
2021/12/17 00:11:41;;;;;;;20.95;13.13;;;;;;;4.43;63.57;95730.44;5015694;23;20055;-78
2021/12/17 00:14:07;;;;;;;21.75;14.65;;;;;;;4.40;64.25;95735.13;4984493;28;20026;-78
2021/12/17 00:16:37;;;;;;;24.92;15.45;;;;;;;4.40;64.35;95730.78;4991034;28;20035;-78
2021/12/17 00:44:11;;;;;;;19.13;11.00;;;;;;;4.52;63.47;95728.59;5022555;28;20051;-78
2021/12/17 00:49:20;;;;;;;15.20;11.15;;;;;;;4.51;63.03;95726.97;5037611;28;20098;-78
2021/12/17 00:54:20;;;;;;;20.80;12.82;;;;;;;4.58;62.52;95722.75;5054708;28;20041;-78
2021/12/17 00:56:53;;;;;;;12.35;10.20;;;;;;;4.60;61.50;95723.38;5035846;28;20040;-77
2021/12/17 00:59:19;;;;;;;16.73;10.65;;;;;;;4.68;61.78;95713.00;5053861;28;20036;-78
2021/12/17 01:01:45;;;;;;;16.48;11.07;;;;;;;4.73;62.14;95721.03;5053616;28;20522;-78
2021/12/17 01:04:10;;;;;;;16.35;10.88;;;;;;;4.74;61.46;95722.66;5057378;28;20040;-78
2021/12/17 01:06:38;;;;;;;17.30;11.18;;;;;;;4.77;60.50;95722.28;5038752;28;20036;-78
2021/12/17 01:09:04;;;;;;;21.25;11.57;;;;;;;4.80;60.98;95721.94;5019882;28;20033;-78
2021/12/17 01:11:30;;;;;;;21.15;12.23;;;;;;;4.82;60.43;95709.69;5033866;28;20516;-77
2021/12/17 01:13:55;;;;;;;22.83;12.65;;;;;;;4.89;59.95;95711.56;5032715;28;20046;-77
2021/12/17 01:16:20;;;;;;;28.20;15.02;;;;;;;4.89;60.21;95711.56;5031065;28;20036;-76
2021/12/17 01:19:11;;;;;;;32.33;15.00;;;;;;;4.85;58.89;95713.69;5050580;28;20040;-76
2021/12/17 01:21:57;;;;;;;23.83;14.02;;;;;;;4.83;59.96;95706.13;5048353;28;20041;-76
2021/12/17 01:35:28;;;;;;;13.73;9.00;;;;;;;4.90;57.94;95687.41;5035270;28;20044;-76
2021/12/17 01:39:04;;;;;;;11.77;8.65;;;;;;;4.88;57.85;95681.59;5033717;28;20033;-76
2021/12/17 01:43:24;;;;;;;16.77;10.30;;;;;;;4.85;57.44;95677.59;5075696;23;20102;-76
2021/12/17 01:45:49;;;;;;;16.30;10.25;;;;;;;4.79;57.73;95679.13;5020379;28;20296;-76
2021/12/17 01:48:21;;;;;;;12.32;9.00;;;;;;;4.87;57.34;95682.56;5017767;28;20038;-76
2021/12/17 02:01:26;;;;;;;8.15;7.15;;;;;;;4.84;57.48;95676.00;5019612;28;20574;-76
2021/12/17 02:03:51;;;;;;;8.98;7.20;;;;;;;4.86;57.02;95679.19;5002574;28;20068;-77
2021/12/17 02:06:18;;;;;;;10.60;7.80;;;;;;;4.85;57.74;95676.81;5019389;28;20453;-77
2021/12/17 02:08:46;;;;;;;10.50;7.72;;;;;;;4.86;57.51;95683.56;5019320;28;20163;-77
2021/12/17 02:19:42;;;;;;;10.77;7.32;;;;;;;5.01;56.93;95669.72;5017961;28;20063;-77
2021/12/17 02:32:36;;;;;;;10.40;7.25;;;;;;;5.01;56.91;95658.63;5018570;28;20053;-77
2021/12/17 02:35:20;;;;;;;17.88;9.30;;;;;;;5.01;56.79;95656.84;5018717;28;20033;-77
2021/12/17 02:37:48;;;;;;;14.02;8.60;;;;;;;5.02;57.07;95657.63;5018498;28;20502;-77
2021/12/17 02:48:02;;;;;;;17.80;11.25;;;;;;;5.18;57.07;95652.31;5017237;28;20025;-78
2021/12/17 02:50:28;;;;;;;14.20;9.88;;;;;;;5.20;56.96;95650.34;5018905;28;20116;-79
2021/12/17 02:52:54;;;;;;;9.70;8.50;;;;;;;5.22;56.75;95657.94;5019966;28;20117;-78
2021/12/17 02:55:20;;;;;;;10.85;8.02;;;;;;;5.21;57.41;95659.72;5024894;28;20026;-76
2021/12/17 02:57:45;;;;;;;13.85;9.15;;;;;;;5.22;56.84;95661.31;5001277;28;20029;-77
2021/12/17 03:00:11;;;;;;;15.95;10.65;;;;;;;5.22;57.37;95660.50;5019064;28;20065;-77
2021/12/17 03:02:40;;;;;;;12.27;9.25;;;;;;;5.24;57.33;95659.34;5019977;28;20053;-77
2021/12/17 03:05:07;;;;;;;13.07;9.15;;;;;;;5.26;57.22;95654.81;5017260;28;20037;-77
2021/12/17 03:07:36;;;;;;;20.63;10.68;;;;;;;5.31;57.13;95657.66;5018379;28;20030;-77
2021/12/17 03:10:07;;;;;;;13.95;9.10;;;;;;;5.36;57.49;95660.47;5027052;28;20036;-78
2021/12/17 03:15:17;;;;;;;13.30;10.18;;;;;;;5.35;57.92;95655.50;5031713;28;20049;-77
2021/12/17 03:23:30;;;;;;;15.77;10.18;;;;;;;5.19;61.71;95653.09;5042233;28;20069;-78
2021/12/17 03:25:57;;;;;;;14.05;10.10;;;;;;;5.01;63.73;95653.44;5040467;28;20044;-78
2021/12/17 03:28:22;;;;;;;17.65;11.23;;;;;;;4.94;63.28;95652.56;5054923;28;20063;-78
2021/12/17 03:30:48;;;;;;;17.73;11.88;;;;;;;4.93;63.64;95656.13;5038885;28;20034;-77
2021/12/17 03:33:16;;;;;;;17.45;10.80;;;;;;;4.90;63.55;95659.84;5037444;28;20491;-76
2021/12/17 03:35:42;;;;;;;15.93;10.82;;;;;;;4.88;63.76;95659.25;5038243;28;20102;-78
2021/12/17 03:38:07;;;;;;;14.60;11.43;;;;;;;4.91;63.47;95656.31;5037974;28;20037;-78
2021/12/17 03:40:33;;;;;;;15.57;10.77;;;;;;;4.97;63.36;95644.47;5023735;28;20134;-78
2021/12/17 03:43:04;;;;;;;17.13;10.35;;;;;;;4.99;63.57;95648.47;5022335;28;20082;-78
2021/12/17 03:45:30;;;;;;;12.75;9.95;;;;;;;5.03;62.91;95636.84;5006348;28;20482;-78
2021/12/17 03:47:55;;;;;;;12.60;10.05;;;;;;;5.02;63.11;95642.16;5041043;28;20126;-78
2021/12/17 03:50:21;;;;;;;22.58;14.55;;;;;;;5.06;63.29;95639.09;5023807;28;20064;-78
2021/12/17 03:52:46;;;;;;;14.27;10.50;;;;;;;5.08;63.44;95631.16;5041123;28;20029;-77
2021/12/17 03:55:12;;;;;;;10.90;9.13;;;;;;;5.09;63.61;95627.63;5044938;28;20472;-78
2021/12/17 03:57:37;;;;;;;10.88;8.38;;;;;;;5.05;63.10;95628.94;5054075;28;20053;-77
2021/12/17 04:00:04;;;;;;;12.80;9.52;;;;;;;5.06;64.16;95627.97;5044611;28;20045;-78
2021/12/17 04:02:29;;;;;;;15.15;10.68;;;;;;;4.97;63.97;95614.34;5062815;28;20033;-78
2021/12/17 04:04:55;;;;;;;16.55;10.43;;;;;;;4.97;64.56;95624.66;5016953;28;20115;-78
2021/12/17 04:07:20;;;;;;;11.95;9.32;;;;;;;4.97;64.47;95616.13;5047365;28;20100;-79
2021/12/17 04:09:46;;;;;;;17.88;13.52;;;;;;;4.99;64.18;95620.13;5029330;28;20389;-77
2021/12/17 04:12:15;;;;;;;20.90;13.90;;;;;;;5.02;64.77;95613.81;5045151;28;20400;-78
2021/12/17 04:14:44;;;;;;;20.30;13.35;;;;;;;5.04;64.78;95609.28;5043836;28;20033;-78
2021/12/17 04:17:11;;;;;;;25.45;14.48;;;;;;;5.08;64.23;95613.13;5046790;28;20045;-79
2021/12/17 04:19:36;;;;;;;22.17;13.40;;;;;;;5.09;64.74;95599.25;5049332;28;20060;-78
2021/12/17 04:22:03;;;;;;;20.88;11.43;;;;;;;5.10;64.56;95606.00;5071280;28;20033;-78
2021/12/17 04:24:28;;;;;;;20.15;13.02;;;;;;;5.11;64.81;95595.50;5031262;28;20059;-80
2021/12/17 04:26:54;;;;;;;15.10;11.32;;;;;;;5.13;64.51;95593.56;5015239;28;20091;-80
2021/12/17 04:29:21;;;;;;;17.23;12.15;;;;;;;5.15;65.29;95587.41;5031200;28;20036;-78
2021/12/17 04:31:55;;;;;;;21.90;12.10;;;;;;;5.15;65.40;95580.47;5047176;28;20567;-78
2021/12/17 04:34:21;;;;;;;24.00;12.65;;;;;;;5.21;64.84;95577.22;5035585;28;20098;-78
2021/12/17 04:36:49;;;;;;;25.92;13.75;;;;;;;5.23;64.73;95567.50;5065831;28;20029;-76
2021/12/17 04:39:18;;;;;;;23.27;14.13;;;;;;;5.19;65.27;95575.75;5050357;28;20037;-78
2021/12/17 04:41:53;;;;;;;18.23;11.80;;;;;;;5.22;64.86;95576.22;5034017;28;20065;-79
2021/12/17 04:44:29;;;;;;;17.67;11.07;;;;;;;5.25;64.80;95570.69;5049662;28;20037;-77
2021/12/17 04:57:58;;;;;;;20.95;14.15;;;;;;;5.30;64.12;95563.22;5053104;28;20048;-82
2021/12/17 05:00:27;;;;;;;16.45;11.70;;;;;;;5.24;64.79;95568.31;5049733;28;20047;-82
2021/12/17 05:02:55;;;;;;;12.23;7.85;;;;;;;5.21;64.86;95574.63;5032967;28;20029;-81
2021/12/17 05:05:25;;;;;;;7.60;6.57;;;;;;;5.11;65.38;95574.91;5037391;28;20058;-80
2021/12/17 05:07:55;;;;;;;7.28;6.13;;;;;;;5.05;65.27;95574.81;5053912;28;20520;-80
2021/12/17 05:18:25;;;;;;;18.33;11.20;;;;;;;5.08;65.71;95580.41;5049280;28;20154;-79
2021/12/17 05:20:57;;;;;;;14.77;9.52;;;;;;;5.08;66.13;95579.63;5035239;28;20067;-79
2021/12/17 05:23:33;;;;;;;10.75;7.55;;;;;;;5.09;66.05;95573.47;5049548;28;20455;-79
2021/12/17 05:26:00;;;;;;;11.65;8.18;;;;;;;5.08;65.43;95569.31;5054801;28;20059;-79
2021/12/17 05:28:25;;;;;;;16.17;10.40;;;;;;;5.13;65.75;95578.09;5046218;28;20025;-77
2021/12/17 05:30:51;;;;;;;13.05;9.55;;;;;;;5.20;65.25;95578.16;5044442;28;20113;-78
2021/12/17 05:33:21;;;;;;;9.57;7.03;;;;;;;5.19;65.39;95579.13;5009637;28;20487;-78
2021/12/17 05:35:47;;;;;;;11.80;7.68;;;;;;;5.20;65.56;95573.00;5049115;28;20037;-80
2021/12/17 05:38:12;;;;;;;16.08;7.95;;;;;;;5.21;65.74;95568.69;5047520;28;20596;-79
2021/12/17 05:40:38;;;;;;;15.13;6.65;;;;;;;5.22;65.87;95565.13;5046392;28;20048;-79
2021/12/17 05:43:05;;;;;;;14.40;6.53;;;;;;;5.21;65.50;95566.09;5031459;28;20030;-79
2021/12/17 05:45:37;;;;;;;11.70;7.95;;;;;;;5.20;66.28;95575.59;5025339;28;20037;-79
2021/12/17 05:48:04;;;;;;;12.13;8.70;;;;;;;5.23;65.74;95557.19;5045461;28;20911;-80
2021/12/17 05:50:30;;;;;;;19.65;12.23;;;;;;;5.28;66.06;95557.44;5046038;28;20037;-79
2021/12/17 05:52:55;;;;;;;18.45;12.82;;;;;;;5.27;64.31;95557.63;5052734;23;20700;-79
2021/12/17 05:55:20;;;;;;;21.33;13.13;;;;;;;5.28;65.23;95567.75;5029208;28;20036;-79
2021/12/17 05:57:46;;;;;;;23.48;14.63;;;;;;;5.32;65.51;95561.25;5025649;28;20133;-78
2021/12/17 06:00:12;;;;;;;18.63;14.23;;;;;;;5.38;64.78;95578.59;5016479;28;20061;-78
2021/12/17 06:02:38;;;;;;;19.13;13.88;;;;;;;5.38;64.54;95573.44;5029174;23;20406;-78
2021/12/17 06:05:06;;;;;;;18.98;13.75;;;;;;;5.37;64.56;95579.59;5022954;28;20045;-78
2021/12/17 06:07:31;;;;;;;15.88;9.38;;;;;;;5.36;63.83;95588.28;5024160;28;20038;-79
2021/12/17 06:10:03;;;;;;;14.63;7.43;;;;;;;5.39;64.05;95593.09;4998317;28;20491;-78
2021/12/17 06:12:29;;;;;;;7.80;6.60;;;;;;;5.40;63.63;95592.13;5009656;28;20033;-77
2021/12/17 06:14:56;;;;;;;10.05;6.35;;;;;;;5.37;63.48;95599.41;5008962;28;20038;-77
2021/12/17 06:17:22;;;;;;;18.23;7.15;;;;;;;5.33;64.69;95590.41;5008745;28;20042;-77
2021/12/17 06:19:49;;;;;;;8.77;6.22;;;;;;;5.27;64.45;95594.53;5008894;28;20084;-77
2021/12/17 06:22:15;;;;;;;12.10;8.55;;;;;;;5.28;64.63;95600.50;5008082;28;20037;-77
2021/12/17 06:24:44;;;;;;;14.57;9.88;;;;;;;5.26;64.12;95599.88;5008090;28;20057;-77
2021/12/17 06:27:13;;;;;;;11.40;8.00;;;;;;;5.25;64.27;95591.34;5009946;28;20026;-77
2021/12/17 06:29:39;;;;;;;24.00;10.07;;;;;;;5.29;64.05;95587.41;4993233;28;20045;-77
2021/12/17 06:32:06;;;;;;;24.35;15.60;;;;;;;5.30;64.75;95589.00;5010056;28;20026;-77
2021/12/17 06:34:31;;;;;;;20.25;13.70;;;;;;;5.37;64.97;95589.91;4991901;28;20038;-77
2021/12/17 06:36:56;;;;;;;11.45;8.93;;;;;;;5.46;65.02;95594.94;4991311;28;20029;-77
2021/12/17 06:39:25;;;;;;;11.27;7.95;;;;;;;5.50;64.31;95593.59;5008722;28;20117;-77
2021/12/17 06:41:51;;;;;;;15.48;9.57;;;;;;;5.50;64.90;95593.59;5009130;28;20022;-78
2021/12/17 06:44:21;;;;;;;22.23;13.60;;;;;;;5.53;64.55;95588.06;5008350;28;20040;-77
2021/12/17 07:10:44;;;;;;;14.55;10.63;;;;;;;5.27;64.82;95588.56;5008187;28;20037;-77
2021/12/17 07:34:16;;;;;;;12.95;9.27;;;;;;;5.23;67.31;95575.25;5007339;28;20056;-76
2021/12/17 07:39:16;;;;;;;23.00;13.40;;;;;;;5.25;66.96;95569.91;4992749;28;20172;-77
2021/12/17 07:41:43;;;;;;;35.85;18.75;;;;;;;5.27;67.00;95584.22;5011031;28;20030;-76
2021/12/17 07:44:09;;;;;;;12.93;9.32;;;;;;;5.22;67.62;95578.81;5010607;28;20175;-77
2021/12/17 07:46:35;;;;;;;11.25;8.65;;;;;;;5.11;67.92;95584.41;5012672;28;20444;-77
2021/12/17 07:49:00;;;;;;;29.75;21.15;;;;;;;5.15;68.44;95582.25;4995557;28;20038;-77
2021/12/17 07:51:26;;;;;;;38.28;21.48;;;;;;;5.14;67.79;95584.03;4994621;28;20481;-77
2021/12/17 07:53:53;;;;;;;25.92;17.90;;;;;;;5.16;68.85;95589.81;5010836;28;20030;-77
2021/12/17 07:56:22;;;;;;;26.00;16.13;;;;;;;5.23;68.24;95582.97;5027300;28;20062;-77
2021/12/17 07:58:48;;;;;;;22.48;15.27;;;;;;;5.29;68.16;95587.41;5011426;28;20037;-79
2021/12/17 08:01:13;;;;;;;30.45;15.38;;;;;;;5.25;67.61;95580.22;5010933;28;20034;-76
2021/12/17 08:03:42;;;;;;;39.30;20.55;;;;;;;5.24;68.17;95589.75;5010126;28;20413;-76
2021/12/17 08:06:07;;;;;;;25.70;15.32;;;;;;;5.23;67.75;95589.91;4994743;28;20030;-76
2021/12/17 08:08:33;;;;;;;28.42;14.55;;;;;;;5.21;68.45;95590.09;5010811;28;20041;-77
2021/12/17 08:10:58;;;;;;;21.88;15.05;;;;;;;5.15;68.58;95590.00;5012051;28;20034;-77
2021/12/17 08:13:29;;;;;;;18.40;12.50;;;;;;;5.06;68.97;95603.00;5010275;28;20041;-77
2021/12/17 08:26:41;;;;;;;27.75;17.42;;;;;;;5.11;69.60;95589.56;5010494;28;20072;-77
2021/12/17 08:29:25;;;;;;;31.23;20.15;;;;;;;5.20;68.84;95575.59;5009998;28;20569;-77
2021/12/17 08:31:51;;;;;;;25.38;17.50;;;;;;;5.31;69.10;95582.06;5026571;28;20104;-77
2021/12/17 08:34:16;;;;;;;28.60;17.15;;;;;;;5.41;68.26;95583.41;5009619;28;20197;-77
2021/12/17 08:36:42;;;;;;;26.88;14.20;;;;;;;5.48;67.35;95575.72;5011280;28;20489;-77
2021/12/17 08:39:10;;;;;;;23.65;15.77;;;;;;;5.57;67.74;95573.84;4994037;28;20030;-77
2021/12/17 08:41:38;;;;;;;45.90;31.63;;;;;;;5.64;66.84;95572.94;4993999;28;20136;-78
2021/12/17 08:44:06;;;;;;;43.88;30.55;;;;;;;5.63;66.46;95566.16;4996486;28;20040;-78
2021/12/17 08:46:32;;;;;;;42.92;28.42;;;;;;;5.72;66.47;95553.97;5011193;28;20052;-77
2021/12/17 08:48:58;;;;;;;23.45;16.60;;;;;;;5.75;66.05;95545.84;5011840;28;20389;-77
2021/12/17 08:51:24;;;;;;;24.65;16.77;;;;;;;5.82;66.09;95544.13;5008582;28;20029;-77
2021/12/17 08:53:49;;;;;;;55.60;27.92;;;;;;;5.88;65.63;95550.34;4993226;28;20523;-77
2021/12/17 08:56:18;;;;;;;68.00;31.10;;;;;;;5.90;65.73;95548.41;4993706;28;20041;-77
2021/12/17 08:58:45;;;;;;;56.08;31.33;;;;;;;5.91;65.99;95544.84;5009788;28;20041;-77
2021/12/17 09:01:12;;;;;;;36.83;24.58;;;;;;;5.78;66.82;95542.91;5011024;28;20064;-76
2021/12/17 09:03:38;;;;;;;70.53;47.42;;;;;;;5.76;66.94;95552.63;5009873;28;20497;-77
2021/12/17 09:06:04;;;;;;;48.72;33.72;;;;;;;5.74;65.96;95544.25;5011067;28;20041;-77
2021/12/17 09:08:30;;;;;;;56.47;40.80;;;;;;;5.66;66.85;95539.19;4993702;28;20093;-77
2021/12/17 09:10:55;;;;;;;21.80;16.77;;;;;;;5.69;66.56;95541.41;5010026;28;20042;-77
2021/12/17 09:13:25;;;;;;;27.92;19.10;;;;;;;5.65;66.77;95522.94;5009341;28;20457;-77
2021/12/17 09:15:59;;;;;;;18.13;13.63;;;;;;;5.64;67.94;95518.75;5009506;28;20048;-76
2021/12/17 09:18:25;;;;;;;18.67;13.93;;;;;;;5.63;67.11;95511.19;5010850;28;20030;-77
2021/12/17 09:20:51;;;;;;;17.48;13.75;;;;;;;5.58;67.39;95509.16;4993383;28;20493;-77
2021/12/17 09:23:16;;;;;;;29.48;19.02;;;;;;;5.60;68.17;95514.16;5008658;28;20077;-77
2021/12/17 09:25:42;;;;;;;19.40;14.65;;;;;;;5.60;67.69;95514.16;5010425;28;20088;-77
2021/12/17 09:28:08;;;;;;;15.43;12.80;;;;;;;5.55;67.70;95526.81;4993277;28;20473;-77
2021/12/17 09:30:33;;;;;;;27.67;19.10;;;;;;;5.54;68.69;95513.09;5011110;28;20045;-77
2021/12/17 09:32:59;;;;;;;32.10;20.38;;;;;;;5.60;68.37;95514.16;4994079;28;20068;-77
2021/12/17 09:35:24;;;;;;;23.10;14.15;;;;;;;5.70;67.72;95527.56;5010167;28;20041;-77
2021/12/17 09:37:50;;;;;;;19.27;13.18;;;;;;;5.69;67.67;95513.84;5008301;28;20041;-77
2021/12/17 09:40:16;;;;;;;16.33;11.85;;;;;;;5.73;67.35;95506.53;5009102;28;20065;-76
2021/12/17 09:42:43;;;;;;;22.35;14.77;;;;;;;5.78;67.14;95504.19;4993083;28;20057;-77
2021/12/17 09:45:08;;;;;;;13.88;11.10;;;;;;;5.85;66.59;95502.47;4992321;28;20397;-77
2021/12/17 09:47:34;;;;;;;19.42;13.45;;;;;;;5.81;67.50;95498.66;4993098;28;20056;-77
2021/12/17 09:49:59;;;;;;;22.38;14.80;;;;;;;5.82;67.25;95486.56;5009812;28;20037;-77
2021/12/17 09:52:25;;;;;;;16.48;13.18;;;;;;;5.90;66.92;95476.94;5009520;28;20424;-77
2021/12/17 09:54:51;;;;;;;18.90;14.13;;;;;;;6.05;67.29;95471.69;4993002;28;20038;-77
2021/12/17 09:57:20;;;;;;;19.38;13.82;;;;;;;6.12;66.32;95474.31;4976546;28;20449;-76
2021/12/17 09:59:46;;;;;;;18.63;13.20;;;;;;;6.09;66.37;95456.63;5009293;28;20038;-77
2021/12/17 10:02:12;;;;;;;16.80;13.65;;;;;;;5.93;67.15;95465.44;5008671;28;20492;-77
2021/12/17 10:04:39;;;;;;;25.25;18.38;;;;;;;5.83;67.61;95464.91;4992639;28;20495;-77
2021/12/17 10:07:24;;;;;;;23.33;18.00;;;;;;;5.77;67.96;95455.34;5009129;28;20058;-77
2021/12/17 10:09:51;;;;;;;33.38;22.65;;;;;;;5.80;68.03;95450.63;5009022;28;20045;-77
2021/12/17 10:12:17;;;;;;;19.33;14.95;;;;;;;5.87;67.98;95451.47;4976275;28;20124;-77
2021/12/17 10:14:57;;;;;;;24.90;15.52;;;;;;;5.89;67.69;95428.84;5008207;28;20041;-77
2021/12/17 10:17:24;;;;;;;21.73;14.65;;;;;;;5.88;67.50;95442.75;5007735;28;20041;-77
2021/12/17 10:19:50;;;;;;;33.58;16.13;;;;;;;5.83;67.24;95433.94;5008566;28;20022;-77
2021/12/17 10:22:18;;;;;;;14.70;10.48;;;;;;;5.80;67.39;95424.81;5009916;28;20033;-77
2021/12/17 10:24:45;;;;;;;16.52;11.85;;;;;;;5.78;66.97;95415.66;4992335;28;20509;-77
2021/12/17 10:27:21;;;;;;;11.10;9.38;;;;;;;5.80;67.48;95409.31;4991991;28;20508;-77
2021/12/17 10:29:48;;;;;;;16.80;11.82;;;;;;;5.85;67.05;95412.13;5024904;28;20030;-76
2021/12/17 10:32:18;;;;;;;19.38;13.82;;;;;;;5.90;66.42;95407.25;5009104;28;20038;-77
2021/12/17 10:35:17;;;;;;;20.63;14.10;;;;;;;6.00;65.85;95402.53;4992382;28;20034;-77
2021/12/17 10:37:50;;;;;;;20.80;14.80;;;;;;;6.06;66.40;95397.63;5003337;28;20096;-77
2021/12/17 10:40:20;;;;;;;16.77;11.77;;;;;;;6.10;65.82;95385.94;5007932;28;20112;-76
2021/12/17 10:45:46;;;;;;;15.75;10.15;;;;;;;6.08;66.17;95375.78;4987790;28;20050;-76
2021/12/17 10:50:51;;;;;;;11.45;8.93;;;;;;;6.00;66.04;95370.75;5007841;28;20095;-76
2021/12/17 10:53:21;;;;;;;11.68;8.93;;;;;;;5.99;66.00;95374.34;4991198;28;20030;-75
2021/12/17 10:55:47;;;;;;;13.43;9.13;;;;;;;6.01;66.35;95365.41;5007555;28;20042;-75
2021/12/17 10:58:13;;;;;;;8.80;6.70;;;;;;;5.90;66.62;95373.69;5008152;28;20587;-76
2021/12/17 11:00:51;;;;;;;7.93;7.13;;;;;;;5.79;67.04;95381.91;5006767;28;20048;-76
2021/12/17 11:03:17;;;;;;;8.13;6.07;;;;;;;5.69;68.47;95376.28;5006949;28;20053;-76
2021/12/17 11:05:42;;;;;;;6.97;6.28;;;;;;;5.63;69.16;95383.00;5023204;28;20163;-75
2021/12/17 11:08:28;;;;;;;10.23;8.07;;;;;;;5.59;69.60;95380.97;5008674;28;20037;-80
2021/12/17 11:11:05;;;;;;;10.02;8.35;;;;;;;5.58;69.43;95376.81;4991214;28;20069;-76
2021/12/17 11:13:31;;;;;;;9.65;8.52;;;;;;;5.63;69.71;95371.88;4992958;28;20469;-76
2021/12/17 11:15:56;;;;;;;24.25;14.60;;;;;;;5.63;69.28;95364.94;5010843;28;20052;-76
2021/12/17 11:18:24;;;;;;;18.35;12.68;;;;;;;5.72;69.53;95365.59;5030800;28;20029;-76
2021/12/17 11:20:52;;;;;;;22.80;13.13;;;;;;;5.81;69.44;95367.03;5014680;28;20030;-76
2021/12/17 11:23:18;;;;;;;21.10;14.18;;;;;;;5.86;68.82;95346.66;5014502;28;20100;-76
2021/12/17 11:25:53;;;;;;;27.83;20.38;;;;;;;5.88;68.56;95356.78;5014287;28;20030;-75
2021/12/17 11:28:19;;;;;;;19.75;15.55;;;;;;;5.98;68.07;95342.56;4998508;28;20053;-76
2021/12/17 11:30:48;;;;;;;31.15;21.52;;;;;;;6.03;67.41;95341.22;4998742;28;20030;-76
2021/12/17 11:33:14;;;;;;;28.67;17.85;;;;;;;6.06;68.16;95343.41;5002364;28;20048;-76
2021/12/17 11:35:42;;;;;;;22.95;14.70;;;;;;;6.04;67.48;95343.59;5000511;28;20018;-77
2021/12/17 11:38:24;;;;;;;35.15;21.23;;;;;;;6.05;67.03;95344.41;5000666;28;21023;-80
2021/12/17 11:40:56;;;;;;;8.88;7.40;;;;;;;5.89;66.69;95332.56;5014600;28;20107;-79
2021/12/17 11:43:38;;;;;;;19.73;12.65;;;;;;;5.77;67.51;95337.44;5027655;28;20049;-77
2021/12/17 11:46:11;;;;;;;14.85;10.35;;;;;;;5.75;67.72;95323.94;5027148;28;20535;-78
2021/12/17 11:48:36;;;;;;;11.07;9.45;;;;;;;5.74;67.48;95317.19;4994724;28;20115;-75
2021/12/17 11:51:11;;;;;;;18.55;11.90;;;;;;;5.64;68.71;95324.44;5010534;28;20482;-77
2021/12/17 11:53:52;;;;;;;17.35;9.75;;;;;;;5.57;68.94;95321.03;5011729;28;20080;-77
2021/12/17 11:56:52;;;;;;;21.20;12.75;;;;;;;5.48;68.60;95320.38;5012207;28;20544;-77
2021/12/17 11:59:28;;;;;;;32.78;20.35;;;;;;;5.45;69.70;95320.75;4997936;28;20037;-77
2021/12/17 12:02:05;;;;;;;29.23;17.58;;;;;;;5.51;68.33;95316.63;5012539;28;20034;-77
2021/12/17 12:04:34;;;;;;;16.98;11.02;;;;;;;5.54;68.05;95311.09;5009894;28;20042;-77
2021/12/17 12:07:09;;;;;;;10.23;8.20;;;;;;;5.48;67.26;95312.63;5011425;28;20568;-77
2021/12/17 12:10:08;;;;;;;17.63;12.70;;;;;;;5.37;68.37;95306.22;5010423;28;20030;-77
2021/12/17 12:12:36;;;;;;;12.38;8.30;;;;;;;5.24;68.25;95300.16;5011896;28;20069;-77
2021/12/17 12:15:17;;;;;;;17.77;10.88;;;;;;;5.20;68.33;95304.88;5011211;28;20044;-77
2021/12/17 12:18:00;;;;;;;15.57;13.05;;;;;;;5.17;67.98;95292.34;5026698;28;20045;-77
2021/12/17 12:20:43;;;;;;;14.63;11.82;;;;;;;5.17;67.52;95284.63;5012271;28;20520;-77
2021/12/17 12:23:16;;;;;;;16.52;12.32;;;;;;;5.21;66.52;95280.72;5011117;28;20141;-77
2021/12/17 12:25:41;;;;;;;13.02;9.60;;;;;;;5.21;66.53;95274.75;5007994;28;20049;-77
2021/12/17 12:28:10;;;;;;;13.45;10.82;;;;;;;5.15;66.17;95265.97;5010341;28;20038;-77
2021/12/17 12:30:40;;;;;;;16.00;10.93;;;;;;;5.14;65.52;95259.22;4993985;28;20057;-77
2021/12/17 12:33:06;;;;;;;25.67;11.35;;;;;;;5.13;66.34;95247.31;4986444;28;20697;-77
2021/12/17 12:35:32;;;;;;;11.13;8.55;;;;;;;5.15;65.71;95245.34;4993018;28;20410;-77
2021/12/17 12:38:17;;;;;;;9.23;8.30;;;;;;;5.13;65.46;95257.63;5009792;28;20793;-76
2021/12/17 12:40:50;;;;;;;16.95;10.27;;;;;;;5.11;64.71;95249.28;5011484;28;20030;-77
2021/12/17 12:43:28;;;;;;;;;;;;;;;5.14;64.54;95243.75;5011273;28;20052;-77
2021/12/17 12:45:53;;;;;;;12.18;8.05;;;;;;;5.08;63.88;95229.06;5010209;28;20011;-77
2021/12/17 12:48:32;;;;;;;11.63;8.13;;;;;;;5.01;63.14;95236.72;5009863;28;20049;-77
2021/12/17 12:51:35;;;;;;;7.47;5.80;;;;;;;4.88;63.70;95243.53;5010419;28;20060;-77
2021/12/17 12:54:01;;;;;;;5.43;4.72;;;;;;;4.82;63.73;95227.84;4993851;28;20084;-77
2021/12/17 12:56:28;;;;;;;7.18;5.60;;;;;;;4.74;63.74;95229.78;5026478;28;20054;-77
2021/12/17 12:58:53;;;;;;;7.88;6.97;;;;;;;4.67;63.88;95232.28;5025751;28;20050;-77
2021/12/17 13:01:20;;;;;;;10.77;7.90;;;;;;;4.69;64.23;95225.16;5009213;28;20164;-77
2021/12/17 13:03:45;;;;;;;16.00;8.30;;;;;;;4.72;64.62;95217.06;4977250;28;20498;-76
2021/12/17 13:06:16;;;;;;;13.60;8.60;;;;;;;4.78;63.82;95229.22;5010831;28;20129;-75
2021/12/17 13:08:41;;;;;;;7.85;6.78;;;;;;;4.81;63.10;95239.13;5009881;28;20068;-75
2021/12/17 13:11:07;;;;;;;15.63;9.20;;;;;;;4.80;63.41;95247.06;5026320;28;20061;-76
2021/12/17 13:13:39;;;;;;;10.40;7.70;;;;;;;4.78;63.66;95244.66;5008819;28;20076;-76
2021/12/17 13:16:14;;;;;;;4.53;4.23;;;;;;;4.81;62.87;95239.13;4993892;28;20069;-76
2021/12/17 13:24:08;;;;;;;10.32;7.00;;;;;;;4.87;62.39;95242.75;5009939;28;20029;-76
2021/12/17 13:26:34;;;;;;;12.48;7.22;;;;;;;4.80;62.91;95242.69;5010709;28;20125;-77
2021/12/17 13:29:01;;;;;;;6.82;5.70;;;;;;;4.81;62.25;95254.59;4993804;28;20116;-76
2021/12/17 13:31:35;;;;;;;14.75;6.22;;;;;;;4.86;62.54;95230.06;5010828;28;20041;-76
2021/12/17 13:34:21;;;;;;;13.95;6.20;;;;;;;4.77;61.80;95258.53;5011370;28;20038;-75
2021/12/17 13:37:08;;;;;;;10.20;7.95;;;;;;;4.73;62.08;95247.00;5009555;28;20417;-76
2021/12/17 13:40:07;;;;;;;16.85;11.38;;;;;;;4.76;62.07;95246.63;5010251;28;20030;-75
2021/12/17 13:42:38;;;;;;;11.70;8.02;;;;;;;4.77;61.95;95258.53;4987392;28;20041;-76
2021/12/17 13:45:05;;;;;;;17.35;9.68;;;;;;;4.76;61.96;95243.25;5009128;28;20038;-76
2021/12/17 13:47:33;;;;;;;29.73;15.05;;;;;;;4.69;62.22;95248.34;4992831;28;20393;-76
2021/12/17 13:50:17;;;;;;;18.92;12.48;;;;;;;4.73;61.93;95247.00;5009268;28;20030;-75
2021/12/17 13:52:58;;;;;;;22.27;12.95;;;;;;;4.75;61.78;95250.19;5012931;28;20033;-77
2021/12/17 13:55:40;;;;;;;18.88;11.45;;;;;;;4.74;61.93;95248.59;5015211;28;20083;-76
2021/12/17 13:58:13;;;;;;;15.82;11.18;;;;;;;4.77;61.29;95244.84;4995873;28;20453;-77
2021/12/17 14:00:43;;;;;;;9.77;6.78;;;;;;;4.73;60.57;95239.28;5011399;28;20096;-78
2021/12/17 14:03:11;;;;;;;19.67;13.38;;;;;;;4.74;60.96;95238.31;4999241;28;20064;-78
2021/12/17 14:05:50;;;;;;;14.00;8.30;;;;;;;4.78;61.03;95218.91;5013853;28;20117;-76
2021/12/17 14:08:18;;;;;;;22.25;13.38;;;;;;;4.75;60.74;95214.13;5008977;28;20038;-76
2021/12/17 14:10:44;;;;;;;14.40;10.02;;;;;;;4.75;60.49;95232.16;5011192;28;20635;-76
2021/12/17 14:13:23;;;;;;;16.10;9.48;;;;;;;4.78;60.75;95231.00;4992534;28;20038;-76
2021/12/17 14:15:49;;;;;;;8.02;6.28;;;;;;;4.75;60.97;95242.47;5008674;28;20034;-76
2021/12/17 14:18:22;;;;;;;7.45;6.32;;;;;;;4.71;60.72;95253.31;4991814;28;20460;-76
2021/12/17 14:20:52;;;;;;;6.53;5.80;;;;;;;4.61;61.52;95233.03;5008752;28;20042;-77
2021/12/17 14:23:22;;;;;;;6.85;6.13;;;;;;;4.56;61.17;95266.25;4990012;28;20465;-77
2021/12/17 14:25:55;;;;;;;13.93;10.38;;;;;;;4.47;61.84;95268.16;5009169;28;20134;-77
2021/12/17 14:28:25;;;;;;;13.18;8.68;;;;;;;4.48;61.66;95264.59;5008904;28;20050;-77
2021/12/17 14:31:01;;;;;;;9.02;6.93;;;;;;;4.47;62.72;95252.69;5024362;28;20042;-77
2021/12/17 14:33:34;;;;;;;12.10;8.05;;;;;;;4.32;63.57;95258.88;5009138;28;20114;-78
2021/12/17 14:36:06;;;;;;;8.88;6.50;;;;;;;4.21;64.01;95268.66;5008948;28;20042;-76
2021/12/17 14:38:40;;;;;;;14.25;8.52;;;;;;;4.15;64.49;95266.00;5008555;28;20037;-76
2021/12/17 14:41:06;;;;;;;18.75;9.80;;;;;;;4.10;64.60;95256.25;5010024;28;20049;-76